createdAt,value
2018-12-22T00:01:11.070Z,21.70
2018-12-22T00:03:39.954Z,21.70
2018-12-22T00:06:08.761Z,21.70
2018-12-22T00:08:37.781Z,21.70
2018-12-22T00:11:06.847Z,21.70
2018-12-22T00:13:35.905Z,21.70
2018-12-22T00:16:05.013Z,21.70
2018-12-22T00:18:34.219Z,21.70
2018-12-22T00:21:03.233Z,21.70
2018-12-22T00:23:32.189Z,21.70
2018-12-22T00:26:01.257Z,21.70
2018-12-22T00:28:30.364Z,21.70
2018-12-22T00:30:59.317Z,21.70
2018-12-22T00:33:28.186Z,21.70
2018-12-22T00:35:57.187Z,21.70
2018-12-22T00:38:26.239Z,21.70
2018-12-22T00:40:55.328Z,21.60
2018-12-22T00:43:24.434Z,21.70
2018-12-22T00:45:53.657Z,21.70
2018-12-22T00:48:22.764Z,21.70
2018-12-22T00:50:51.977Z,21.70
2018-12-22T00:53:20.983Z,21.60
2018-12-22T00:55:50.004Z,21.60
2018-12-22T00:58:18.903Z,21.70
2018-12-22T01:00:48.056Z,21.70
2018-12-22T01:03:17.135Z,21.60
2018-12-22T01:05:46.148Z,21.70
2018-12-22T01:08:15.154Z,21.70
2018-12-22T01:10:44.172Z,21.60
2018-12-22T01:13:13.276Z,21.70
2018-12-22T01:15:42.289Z,21.60
2018-12-22T01:18:11.295Z,21.60
2018-12-22T01:20:40.313Z,21.60
2018-12-22T01:23:09.081Z,21.60
2018-12-22T01:25:37.976Z,21.60
2018-12-22T01:28:08.333Z,21.60
2018-12-22T01:30:37.504Z,21.60
2018-12-22T01:33:07.145Z,21.60
2018-12-22T01:35:36.210Z,21.60
2018-12-22T01:38:06.152Z,21.60
2018-12-22T01:40:35.144Z,21.60
2018-12-22T01:43:04.888Z,21.60
2018-12-22T01:45:33.794Z,21.70
2018-12-22T01:48:02.801Z,21.60
2018-12-22T01:50:31.864Z,21.70
2018-12-22T01:53:00.936Z,21.60
2018-12-22T01:55:30.701Z,21.60
2018-12-22T01:57:59.648Z,21.60
2018-12-22T02:00:28.785Z,21.60
2018-12-22T02:02:57.881Z,21.60
2018-12-22T02:05:26.900Z,21.60
2018-12-22T02:07:55.908Z,21.60
2018-12-22T02:10:25.020Z,21.60
2018-12-22T02:12:54.059Z,21.60
2018-12-22T02:15:23.048Z,21.60
2018-12-22T02:17:52.044Z,21.60
2018-12-22T02:20:21.278Z,21.60
2018-12-22T02:22:50.289Z,21.60
2018-12-22T02:25:19.293Z,21.60
2018-12-22T02:27:48.908Z,21.60
2018-12-22T02:30:17.932Z,21.60
2018-12-22T02:32:46.948Z,21.60
2018-12-22T02:35:15.942Z,21.60
2018-12-22T02:37:45.058Z,21.60
2018-12-22T02:40:14.107Z,21.60
2018-12-22T02:42:43.171Z,21.60
2018-12-22T02:45:12.199Z,21.60
2018-12-22T02:47:41.311Z,21.60
2018-12-22T02:50:11.342Z,21.60
2018-12-22T02:52:40.498Z,21.60
2018-12-22T02:55:09.566Z,21.60
2018-12-22T02:57:38.587Z,21.60
2018-12-22T03:00:09.940Z,21.60
2018-12-22T03:02:38.931Z,21.60
2018-12-22T03:05:07.843Z,21.60
2018-12-22T03:07:36.997Z,21.60
2018-12-22T03:10:05.974Z,21.60
2018-12-22T03:12:35.005Z,21.60
2018-12-22T03:15:04.205Z,21.60
2018-12-22T03:17:33.322Z,21.60
2018-12-22T03:20:02.304Z,21.60
2018-12-22T03:22:31.244Z,21.50
2018-12-22T03:25:00.349Z,21.60
2018-12-22T03:27:29.446Z,21.60
2018-12-22T03:29:58.486Z,21.60
2018-12-22T03:32:27.513Z,21.60
2018-12-22T03:34:56.495Z,21.50
2018-12-22T03:37:25.442Z,21.50
2018-12-22T03:39:54.419Z,21.60
2018-12-22T03:42:23.477Z,21.50
2018-12-22T03:44:52.429Z,21.50
2018-12-22T03:47:21.440Z,21.60
2018-12-22T03:49:50.562Z,21.50
2018-12-22T03:52:19.510Z,21.50
2018-12-22T03:54:48.503Z,21.60
2018-12-22T03:57:17.588Z,21.50
2018-12-22T03:59:46.548Z,21.50
2018-12-22T04:02:15.516Z,21.60
2018-12-22T04:04:44.622Z,21.60
2018-12-22T04:07:13.630Z,21.60
2018-12-22T04:09:42.778Z,21.60
2018-12-22T04:12:11.725Z,21.60
2018-12-22T04:14:40.870Z,21.60
2018-12-22T04:17:09.878Z,21.60
2018-12-22T04:19:38.894Z,21.60
2018-12-22T04:22:08.015Z,21.60
2018-12-22T04:24:37.125Z,21.60
2018-12-22T04:27:06.160Z,21.60
2018-12-22T04:29:35.133Z,21.60
2018-12-22T04:32:04.156Z,21.60
2018-12-22T04:34:33.157Z,21.60
2018-12-22T04:37:02.059Z,21.60
2018-12-22T04:39:30.975Z,21.60
2018-12-22T04:42:00.150Z,21.60
2018-12-22T04:44:29.201Z,21.60
2018-12-22T04:46:58.302Z,21.60
2018-12-22T04:49:27.319Z,21.60
2018-12-22T04:51:56.325Z,21.60
2018-12-22T04:54:25.461Z,21.60
2018-12-22T04:56:54.811Z,21.60
2018-12-22T04:59:24.004Z,21.60
2018-12-22T05:01:52.967Z,21.60
2018-12-22T05:04:21.901Z,21.60
2018-12-22T05:06:50.922Z,21.60
2018-12-22T05:09:20.032Z,21.70
2018-12-22T05:11:48.959Z,21.70
2018-12-22T05:14:17.942Z,21.60
2018-12-22T05:16:46.912Z,21.70
2018-12-22T05:19:15.848Z,21.60
2018-12-22T05:21:44.985Z,21.60
2018-12-22T05:24:13.975Z,21.60
2018-12-22T05:26:43.016Z,21.70
2018-12-22T05:29:11.807Z,21.70
2018-12-22T05:31:40.923Z,21.70
2018-12-22T05:34:10.014Z,21.70
2018-12-22T05:36:39.025Z,21.70
2018-12-22T05:39:08.447Z,21.70
2018-12-22T05:41:37.565Z,21.70
2018-12-22T05:44:06.685Z,21.70
2018-12-22T05:46:36.395Z,21.70
2018-12-22T05:49:05.468Z,21.70
2018-12-22T05:51:34.546Z,21.70
2018-12-22T05:54:03.443Z,21.80
2018-12-22T05:56:32.452Z,21.70
2018-12-22T05:59:02.380Z,21.80
2018-12-22T06:01:31.392Z,21.80
2018-12-22T06:04:00.438Z,21.80
2018-12-22T06:06:29.344Z,21.80
2018-12-22T06:08:58.521Z,21.70
2018-12-22T06:11:28.002Z,21.70
2018-12-22T06:13:56.896Z,21.70
2018-12-22T06:16:26.375Z,21.70
2018-12-22T06:18:55.280Z,21.60
2018-12-22T06:21:24.293Z,21.70
2018-12-22T06:23:53.312Z,20.10
2018-12-22T06:26:22.345Z,18.40
2018-12-22T06:28:51.322Z,17.20
2018-12-22T06:31:20.322Z,16.80
2018-12-22T06:33:49.342Z,16.40
2018-12-22T06:36:18.675Z,16.10
2018-12-22T06:38:47.614Z,15.90
2018-12-22T06:41:16.497Z,15.20
2018-12-22T06:43:45.424Z,16.00
2018-12-22T06:46:14.401Z,17.30
2018-12-22T06:48:43.407Z,18.10
2018-12-22T06:51:12.407Z,18.70
2018-12-22T06:53:42.092Z,19.20
2018-12-22T06:56:11.262Z,19.60
2018-12-22T06:58:40.376Z,20.00
2018-12-22T07:01:09.379Z,20.20
2018-12-22T07:03:38.245Z,20.40
2018-12-22T07:06:07.212Z,20.60
2018-12-22T07:08:36.207Z,20.80
2018-12-22T07:11:05.261Z,20.90
2018-12-22T07:13:34.227Z,21.00
2018-12-22T07:16:03.331Z,21.10
2018-12-22T07:18:32.216Z,21.20
2018-12-22T07:21:01.172Z,21.30
2018-12-22T07:23:30.161Z,21.40
2018-12-22T07:25:59.283Z,21.50
2018-12-22T07:28:28.374Z,21.60
2018-12-22T07:30:57.519Z,21.60
2018-12-22T07:33:27.358Z,21.70
2018-12-22T07:35:56.347Z,21.80
2018-12-22T07:38:25.487Z,21.80
2018-12-22T07:40:54.987Z,21.90
2018-12-22T07:43:23.996Z,22.00
2018-12-22T07:45:53.122Z,22.00
2018-12-22T07:48:22.218Z,22.00
2018-12-22T07:50:51.216Z,22.10
2018-12-22T07:53:20.231Z,22.10
2018-12-22T07:55:49.139Z,22.10
2018-12-22T07:58:17.998Z,22.10
2018-12-22T08:00:46.987Z,22.20
2018-12-22T08:03:15.971Z,22.20
2018-12-22T08:05:45.075Z,22.20
2018-12-22T08:08:14.196Z,22.20
2018-12-22T08:10:43.217Z,22.20
2018-12-22T08:13:12.215Z,22.30
2018-12-22T08:15:42.984Z,22.30
2018-12-22T08:18:12.196Z,22.30
2018-12-22T08:20:41.216Z,22.40
2018-12-22T08:23:10.199Z,22.40
2018-12-22T08:25:39.413Z,22.40
2018-12-22T08:28:08.477Z,22.50
2018-12-22T08:30:43.487Z,22.50
2018-12-22T08:33:08.423Z,22.60
2018-12-22T08:35:37.533Z,22.70
2018-12-22T08:38:06.519Z,22.70
2018-12-22T08:40:35.628Z,22.70
2018-12-22T08:43:04.742Z,22.70
2018-12-22T08:45:33.793Z,22.70
2018-12-22T08:48:02.781Z,22.70
2018-12-22T08:50:32.383Z,22.70
2018-12-22T08:53:01.517Z,22.70
2018-12-22T08:55:30.520Z,22.70
2018-12-22T08:57:59.435Z,22.60
2018-12-22T09:00:28.461Z,22.50
2018-12-22T09:07:45.941Z,22.30
2018-12-22T09:13:37.597Z,22.30
2018-12-22T09:16:06.763Z,22.20
2018-12-22T09:18:35.821Z,22.20
2018-12-22T09:21:04.835Z,22.30
2018-12-22T09:23:33.946Z,22.20
2018-12-22T09:26:02.711Z,22.00
2018-12-22T09:28:31.573Z,21.70
2018-12-22T09:31:00.871Z,21.60
2018-12-22T09:33:30.040Z,21.20
2018-12-22T09:35:59.097Z,19.90
2018-12-22T09:38:28.311Z,18.60
2018-12-22T09:40:57.328Z,17.80
2018-12-22T09:43:26.331Z,17.00
2018-12-22T09:45:55.458Z,16.60
2018-12-22T09:48:24.497Z,16.10
2018-12-22T09:50:53.639Z,15.60
2018-12-22T09:53:22.732Z,15.20
2018-12-22T09:55:51.792Z,15.00
2018-12-22T09:58:20.671Z,14.70
2018-12-22T10:00:49.730Z,14.40
2018-12-22T10:03:19.345Z,14.20
2018-12-22T10:05:48.350Z,14.00
2018-12-22T10:08:17.661Z,14.00
2018-12-22T10:10:46.888Z,13.90
2018-12-22T10:13:16.101Z,13.80
2018-12-22T10:15:45.330Z,13.70
2018-12-22T10:18:14.430Z,13.60
2018-12-22T10:20:43.868Z,13.50
2018-12-22T10:23:12.753Z,13.50
2018-12-22T10:25:41.666Z,13.50
2018-12-22T10:28:10.620Z,13.40
2018-12-22T10:30:39.565Z,13.20
2018-12-22T10:33:09.752Z,13.20
2018-12-22T10:35:38.764Z,13.10
2018-12-22T10:38:08.363Z,13.10
2018-12-22T10:40:37.568Z,13.10
2018-12-22T10:43:06.364Z,13.10
2018-12-22T10:45:35.564Z,13.00
2018-12-22T10:48:04.597Z,13.00
2018-12-22T10:50:33.591Z,13.00
2018-12-22T10:53:03.086Z,13.00
2018-12-22T10:55:32.442Z,13.00
2018-12-22T10:58:01.537Z,12.90
2018-12-22T11:00:31.237Z,12.90
2018-12-22T11:02:59.949Z,12.90
2018-12-22T11:05:28.900Z,12.80
2018-12-22T11:07:58.025Z,12.70
2018-12-22T11:10:27.657Z,12.70
2018-12-22T11:12:59.065Z,12.80
2018-12-22T11:15:28.121Z,12.80
2018-12-22T11:17:57.121Z,12.70
2018-12-22T11:20:26.144Z,12.70
2018-12-22T11:22:55.160Z,12.70
2018-12-22T11:25:26.318Z,12.70
2018-12-22T11:27:55.411Z,12.70
2018-12-22T11:30:33.544Z,12.60
2018-12-22T11:33:03.436Z,12.50
2018-12-22T11:35:32.453Z,12.50
2018-12-22T11:38:01.489Z,13.10
2018-12-22T11:40:30.662Z,14.30
2018-12-22T11:42:59.703Z,15.50
2018-12-22T11:45:28.757Z,16.30
2018-12-22T11:48:17.910Z,17.10
2018-12-22T11:50:47.028Z,17.60
2018-12-22T11:53:15.987Z,18.10
2018-12-22T11:55:45.034Z,18.40
2018-12-22T11:58:14.164Z,18.70
2018-12-22T12:00:43.922Z,19.00
2018-12-22T12:03:12.877Z,19.20
2018-12-22T12:05:41.896Z,19.40
2018-12-22T12:08:10.895Z,19.50
2018-12-22T12:10:39.924Z,19.60
2018-12-22T12:13:08.907Z,19.70
2018-12-22T12:15:45.210Z,19.90
2018-12-22T12:19:26.378Z,20.00
2018-12-22T12:21:59.531Z,20.10
2018-12-22T12:24:28.526Z,20.10
2018-12-22T12:26:57.491Z,20.10
2018-12-22T12:29:26.595Z,20.10
2018-12-22T12:32:04.510Z,20.20
2018-12-22T12:34:33.531Z,20.20
2018-12-22T12:37:02.636Z,20.30
2018-12-22T12:39:31.655Z,20.30
2018-12-22T12:42:00.638Z,20.40
2018-12-22T12:44:29.874Z,20.40
2018-12-22T12:48:17.674Z,20.60
2018-12-22T12:50:47.846Z,20.60
2018-12-22T12:53:17.046Z,20.50
2018-12-22T12:55:46.044Z,20.50
2018-12-22T12:58:15.182Z,20.50
2018-12-22T13:00:44.418Z,20.60
2018-12-22T13:03:13.397Z,20.50
2018-12-22T13:05:42.417Z,20.50
2018-12-22T13:08:11.465Z,20.50
2018-12-22T13:10:40.447Z,20.50
2018-12-22T13:13:17.365Z,20.50
2018-12-22T13:15:46.195Z,20.50
2018-12-22T13:18:15.343Z,20.50
2018-12-22T13:20:44.392Z,20.50
2018-12-22T13:23:13.930Z,20.50
2018-12-22T13:25:43.039Z,20.60
2018-12-22T13:28:12.009Z,20.60
2018-12-22T13:30:41.019Z,20.60
2018-12-22T13:33:10.079Z,20.60
2018-12-22T13:35:39.142Z,20.60
2018-12-22T13:38:08.128Z,20.60
2018-12-22T13:40:37.035Z,20.60
2018-12-22T13:43:06.174Z,20.70
2018-12-22T13:45:35.269Z,20.60
2018-12-22T13:48:04.306Z,20.70
2018-12-22T13:50:34.109Z,20.70
2018-12-22T13:53:03.116Z,20.70
2018-12-22T13:55:32.238Z,20.70
2018-12-22T13:58:01.367Z,20.70
2018-12-22T14:00:32.777Z,20.70
2018-12-22T14:03:01.934Z,20.70
2018-12-22T14:05:30.932Z,20.70
2018-12-22T14:08:00.044Z,20.80
2018-12-22T14:10:29.054Z,20.80
2018-12-22T14:12:58.064Z,20.80
2018-12-22T14:15:27.086Z,20.80
2018-12-22T14:18:17.590Z,20.80
2018-12-22T14:20:46.608Z,20.80
2018-12-22T14:23:15.592Z,20.80
2018-12-22T14:25:44.932Z,20.80
2018-12-22T14:28:13.823Z,20.80
2018-12-22T14:30:42.881Z,20.90
2018-12-22T14:33:11.956Z,20.80
2018-12-22T14:35:44.541Z,20.80
2018-12-22T14:38:14.268Z,20.90
2018-12-22T14:40:43.387Z,20.90
2018-12-22T14:43:12.509Z,20.90
2018-12-22T14:45:41.491Z,20.90
2018-12-22T14:48:10.420Z,20.90
2018-12-22T14:50:39.741Z,20.90
2018-12-22T14:53:08.991Z,20.90
2018-12-22T14:55:38.781Z,20.90
2018-12-22T14:58:15.636Z,20.90
2018-12-22T15:00:44.615Z,20.90
2018-12-22T15:03:13.593Z,21.00
2018-12-22T15:05:42.591Z,21.00
2018-12-22T15:08:11.747Z,21.00
2018-12-22T15:10:41.029Z,21.00
2018-12-22T15:13:10.139Z,21.00
2018-12-22T15:15:39.191Z,21.00
2018-12-22T15:18:08.151Z,21.00
2018-12-22T15:20:37.173Z,21.00
2018-12-22T15:23:09.290Z,21.00
2018-12-22T15:25:39.461Z,21.00
2018-12-22T15:28:09.373Z,21.00
2018-12-22T15:30:38.874Z,21.00
2018-12-22T15:33:08.817Z,21.00
2018-12-22T15:35:37.880Z,21.10
2018-12-22T15:38:08.514Z,21.10
2018-12-22T15:40:38.157Z,21.10
2018-12-22T15:43:07.931Z,21.10
2018-12-22T15:45:37.790Z,21.10
2018-12-22T15:48:08.025Z,21.20
2018-12-22T15:50:39.488Z,21.20
2018-12-22T15:53:10.581Z,21.20
2018-12-22T15:55:40.712Z,21.10
2018-12-22T15:58:10.521Z,21.20
2018-12-22T16:00:40.270Z,21.20
2018-12-22T16:03:10.928Z,21.20
2018-12-22T16:05:41.692Z,21.20
2018-12-22T16:08:12.187Z,21.20
2018-12-22T16:10:42.334Z,21.30
2018-12-22T16:13:12.098Z,21.30
2018-12-22T16:15:43.551Z,21.30
2018-12-22T16:18:13.585Z,21.40
2018-12-22T16:20:43.926Z,21.40
2018-12-22T16:23:13.853Z,21.40
2018-12-22T16:25:43.483Z,21.40
2018-12-22T16:28:22.155Z,21.40
2018-12-22T16:30:56.386Z,21.40
2018-12-22T16:33:26.763Z,21.40
2018-12-22T16:35:56.459Z,21.40
2018-12-22T16:38:26.755Z,21.40
2018-12-22T16:40:56.945Z,21.40
2018-12-22T16:43:27.197Z,21.40
2018-12-22T16:45:57.673Z,21.40
2018-12-22T16:48:27.400Z,21.40
2018-12-22T16:50:57.687Z,21.50
2018-12-22T16:53:27.677Z,21.50
2018-12-22T16:55:59.148Z,21.60
2018-12-22T16:58:32.457Z,21.50
2018-12-22T17:01:08.552Z,21.50
2018-12-22T17:03:38.813Z,21.50
2018-12-22T17:06:11.585Z,21.60
2018-12-22T17:08:42.288Z,21.60
2018-12-22T17:11:12.767Z,21.60
2018-12-22T17:13:43.665Z,21.60
2018-12-22T17:16:12.917Z,21.70
2018-12-22T17:18:42.842Z,21.60
2018-12-22T17:21:21.406Z,21.60
2018-12-22T17:24:02.729Z,21.70
2018-12-22T17:26:34.758Z,21.60
2018-12-22T17:29:04.898Z,21.60
2018-12-22T17:31:34.993Z,21.60
2018-12-22T17:34:05.784Z,21.60
2018-12-22T17:36:36.746Z,21.60
2018-12-22T17:39:08.838Z,21.50
2018-12-22T17:41:39.425Z,21.20
2018-12-22T17:44:09.580Z,20.90
2018-12-22T17:46:39.079Z,20.60
2018-12-22T17:49:09.346Z,20.50
2018-12-22T17:51:40.176Z,20.70
2018-12-22T17:54:09.476Z,20.90
2018-12-22T17:56:39.587Z,21.00
2018-12-22T17:59:09.559Z,21.10
2018-12-22T18:01:40.548Z,21.10
2018-12-22T18:04:10.320Z,21.20
2018-12-22T18:06:41.007Z,21.20
2018-12-22T18:09:12.117Z,21.30
2018-12-22T18:11:42.219Z,21.30
2018-12-22T18:14:13.726Z,21.30
2018-12-22T18:16:44.562Z,21.40
2018-12-22T18:19:14.730Z,21.40
2018-12-22T18:21:44.593Z,21.40
2018-12-22T18:24:14.525Z,21.40
2018-12-22T18:26:48.523Z,21.40
2018-12-22T18:29:19.115Z,21.40
2018-12-22T18:31:50.030Z,21.40
2018-12-22T18:34:20.442Z,21.40
2018-12-22T18:36:51.258Z,21.50
2018-12-22T18:39:20.919Z,21.50
2018-12-22T18:41:50.492Z,21.50
2018-12-22T18:44:20.654Z,21.50
2018-12-22T18:46:51.397Z,21.50
2018-12-22T18:49:22.344Z,21.60
2018-12-22T18:51:53.393Z,21.60
2018-12-22T18:54:24.217Z,21.70
2018-12-22T18:56:55.140Z,21.70
2018-12-22T18:59:25.753Z,21.70
2018-12-22T19:01:57.048Z,21.70
2018-12-22T19:04:26.550Z,21.70
2018-12-22T19:06:56.832Z,21.70
2018-12-22T19:09:30.181Z,21.80
2018-12-22T19:12:01.503Z,21.80
2018-12-22T19:14:31.482Z,21.80
2018-12-22T19:17:03.365Z,21.80
2018-12-22T19:19:33.367Z,21.80
2018-12-22T19:22:03.430Z,21.80
2018-12-22T19:24:33.498Z,21.80
2018-12-22T19:27:03.219Z,21.90
2018-12-22T19:29:32.549Z,21.90
2018-12-22T19:32:01.792Z,21.90
2018-12-22T19:34:31.693Z,21.90
2018-12-22T19:37:01.588Z,22.00
2018-12-22T19:39:32.005Z,22.00
2018-12-22T19:42:02.018Z,22.00
2018-12-22T19:44:32.329Z,22.10
2018-12-22T19:47:02.142Z,22.10
2018-12-22T19:49:32.336Z,22.20
2018-12-22T19:52:03.132Z,22.30
2018-12-22T19:54:33.599Z,22.20
2018-12-22T19:57:04.132Z,22.10
2018-12-22T19:59:33.426Z,22.10
2018-12-22T20:02:03.259Z,22.10
2018-12-22T20:04:33.373Z,22.10
2018-12-22T20:07:03.828Z,22.10
2018-12-22T20:09:34.016Z,22.20
2018-12-22T20:12:07.578Z,22.20
2018-12-22T20:14:36.706Z,22.20
2018-12-22T20:17:06.055Z,22.20
2018-12-22T20:19:36.415Z,22.20
2018-12-22T20:22:06.938Z,22.20
2018-12-22T20:24:36.932Z,22.20
2018-12-22T20:27:06.836Z,22.30
2018-12-22T20:29:37.753Z,22.20
2018-12-22T20:32:07.456Z,22.20
2018-12-22T20:34:37.653Z,22.20
2018-12-22T20:37:06.905Z,22.20
2018-12-22T20:39:36.543Z,22.20
2018-12-22T20:42:06.952Z,22.30
2018-12-22T20:44:36.609Z,22.30
2018-12-22T20:47:06.455Z,22.30
2018-12-22T20:49:36.634Z,22.20
2018-12-22T20:52:06.029Z,22.20
2018-12-22T20:54:35.591Z,22.20
2018-12-22T20:57:04.752Z,22.20
2018-12-22T20:59:34.504Z,22.20
2018-12-22T21:02:04.680Z,22.10
2018-12-22T21:04:35.028Z,21.70
2018-12-22T21:07:06.231Z,21.50
2018-12-22T21:09:36.081Z,21.50
2018-12-22T21:12:05.994Z,21.60
2018-12-22T21:14:35.887Z,21.70
2018-12-22T21:17:05.605Z,21.70
2018-12-22T21:19:36.547Z,21.70
2018-12-22T21:22:07.093Z,21.70
2018-12-22T21:24:36.825Z,21.70
2018-12-22T21:27:07.165Z,21.80
2018-12-22T21:29:36.797Z,21.80
2018-12-22T21:32:07.050Z,21.80
2018-12-22T21:34:38.328Z,21.80
2018-12-22T21:37:09.335Z,21.80
2018-12-22T21:39:39.446Z,21.80
2018-12-22T21:42:09.742Z,21.80
2018-12-22T21:44:40.343Z,21.80
2018-12-22T21:47:10.048Z,21.80
2018-12-22T21:49:41.772Z,21.80
2018-12-22T21:52:12.398Z,21.80
2018-12-22T21:54:41.657Z,21.90
2018-12-22T21:57:11.713Z,21.90
2018-12-22T21:59:41.874Z,21.80
2018-12-22T22:02:12.731Z,21.80
2018-12-22T22:04:42.909Z,21.80
2018-12-22T22:07:15.219Z,21.70
2018-12-22T22:09:45.884Z,21.70
2018-12-22T22:12:16.450Z,21.70
2018-12-22T22:14:45.809Z,21.70
2018-12-22T22:17:16.834Z,21.70
2018-12-22T22:19:52.117Z,21.70
2018-12-22T22:22:22.839Z,21.70
2018-12-22T22:24:53.379Z,21.70
2018-12-22T22:27:23.141Z,21.70
2018-12-22T22:31:22.105Z,21.70
2018-12-22T22:33:51.427Z,21.70
2018-12-22T22:36:22.304Z,21.70
2018-12-22T22:38:52.429Z,21.60
2018-12-22T22:41:21.616Z,21.60
2018-12-22T22:43:51.961Z,21.60
2018-12-22T22:46:22.396Z,21.60
2018-12-22T22:48:52.323Z,21.60
2018-12-22T22:51:22.658Z,21.60
2018-12-22T22:53:52.899Z,21.60
2018-12-22T22:56:23.008Z,21.60
2018-12-22T22:58:54.091Z,21.60
2018-12-22T23:01:24.419Z,21.60
2018-12-22T23:03:54.273Z,21.60
2018-12-22T23:06:23.812Z,21.60
2018-12-22T23:08:54.500Z,21.60
2018-12-22T23:11:23.853Z,21.60
2018-12-22T23:13:53.607Z,21.60
2018-12-22T23:16:23.607Z,21.60
2018-12-22T23:18:53.269Z,21.60
2018-12-22T23:21:22.985Z,21.60
2018-12-22T23:23:53.328Z,21.60
2018-12-22T23:26:23.613Z,21.60
2018-12-22T23:28:52.861Z,21.60
2018-12-22T23:31:23.501Z,21.60
2018-12-22T23:33:54.563Z,21.60
2018-12-22T23:36:25.304Z,21.60
2018-12-22T23:38:55.372Z,21.60
2018-12-22T23:41:24.901Z,21.60
2018-12-22T23:43:55.346Z,21.60
2018-12-22T23:46:25.692Z,21.60
2018-12-22T23:48:56.265Z,21.60
2018-12-22T23:51:26.498Z,21.60
2018-12-22T23:53:57.206Z,21.60
2018-12-22T23:56:27.654Z,21.60
2018-12-22T23:58:57.557Z,21.60
